Time;durP1;ratioP1;P1;durP2;ratioP2;P2;SDS_P1;SDS_P2;PMS_P1;PMS_P2;Temp;Humidity;BMP_temperature;BMP_pressure;BME280_temperature;BME280_humidity;BME280_pressure;Samples;Min_cycle;Max_cycle;Signal;HPM_P1;HPM_P2
2023/03/06 00:01:03;;;;;;;14.70;5.15;;;;;;;2.68;100.00;100740.91;5019547;28;20056;-74
2023/03/06 00:03:29;;;;;;;15.57;4.88;;;;;;;2.70;100.00;100747.00;5000414;28;20032;-74
2023/03/06 00:05:56;;;;;;;16.08;4.85;;;;;;;2.72;100.00;100731.84;5019838;28;20033;-74
2023/03/06 00:08:21;;;;;;;16.88;5.32;;;;;;;2.71;100.00;100731.91;5003071;28;20021;-74
2023/03/06 00:10:47;;;;;;;17.25;5.57;;;;;;;2.71;100.00;100730.16;5002856;28;20109;-74
2023/03/06 00:13:14;;;;;;;13.35;4.68;;;;;;;2.71;100.00;100723.97;5018794;28;20454;-74
2023/03/06 00:15:40;;;;;;;15.95;5.60;;;;;;;2.68;100.00;100727.63;5020346;28;20041;-74
2023/03/06 00:18:06;;;;;;;13.95;4.78;;;;;;;2.65;100.00;100719.81;5002910;28;20052;-74
2023/03/06 00:20:32;;;;;;;15.35;5.32;;;;;;;2.63;100.00;100721.63;5019607;28;20391;-74
2023/03/06 00:22:57;;;;;;;18.33;5.63;;;;;;;2.62;100.00;100717.25;5017592;28;20044;-74
2023/03/06 00:25:23;;;;;;;17.42;6.32;;;;;;;2.60;100.00;100719.13;5001882;28;20056;-74
2023/03/06 00:27:49;;;;;;;12.88;5.30;;;;;;;2.59;100.00;100705.00;5017651;28;20082;-74
2023/03/06 00:30:21;;;;;;;16.92;4.85;;;;;;;2.57;100.00;100706.00;5019783;28;20036;-74
2023/03/06 00:32:46;;;;;;;16.83;5.22;;;;;;;2.50;100.00;100702.72;5001335;28;20025;-74
2023/03/06 00:35:12;;;;;;;17.38;5.47;;;;;;;2.47;100.00;100704.66;5019501;28;20041;-74
2023/03/06 00:37:38;;;;;;;17.67;5.45;;;;;;;2.49;100.00;100708.09;5017596;28;20140;-74
2023/03/06 00:40:10;;;;;;;18.35;5.72;;;;;;;2.47;100.00;100696.69;5002679;28;20040;-74
2023/03/06 00:42:36;;;;;;;20.63;5.68;;;;;;;2.45;100.00;100694.97;4983709;28;20455;-74
2023/03/06 00:45:01;;;;;;;15.52;5.32;;;;;;;2.44;100.00;100695.88;5002250;28;20041;-74
2023/03/06 00:47:26;;;;;;;17.13;5.68;;;;;;;2.38;100.00;100696.13;4999663;28;20029;-74
2023/03/06 00:49:52;;;;;;;17.92;5.78;;;;;;;2.27;100.00;100687.78;5001726;28;20029;-74
2023/03/06 00:52:17;;;;;;;18.13;5.70;;;;;;;2.22;100.00;100692.41;5017807;28;20068;-74
2023/03/06 00:54:42;;;;;;;18.00;5.95;;;;;;;2.14;100.00;100689.19;5001693;28;20043;-74
2023/03/06 00:57:08;;;;;;;19.83;5.82;;;;;;;2.04;100.00;100696.69;5001688;28;20036;-74
2023/03/06 00:59:33;;;;;;;16.45;5.53;;;;;;;1.92;100.00;100690.94;5019585;28;23164;-74
2023/03/06 01:01:58;;;;;;;19.40;5.63;;;;;;;1.85;100.00;100685.94;5019661;28;20029;-74
2023/03/06 01:04:24;;;;;;;16.88;5.70;;;;;;;1.77;100.00;100677.44;5001440;28;20033;-74
2023/03/06 01:06:49;;;;;;;18.85;5.95;;;;;;;1.70;100.00;100677.66;5019611;28;20521;-74
2023/03/06 01:09:14;;;;;;;16.92;5.63;;;;;;;1.69;100.00;100672.44;5019266;28;20018;-74
2023/03/06 01:11:40;;;;;;;17.95;6.00;;;;;;;1.66;100.00;100660.16;5019326;28;20153;-74
2023/03/06 01:14:05;;;;;;;16.40;5.40;;;;;;;1.62;100.00;100670.94;5019681;28;21288;-74
2023/03/06 01:16:31;;;;;;;17.23;5.55;;;;;;;1.56;100.00;100667.59;5019326;28;20053;-74
2023/03/06 01:18:56;;;;;;;17.33;5.80;;;;;;;1.51;100.00;100666.06;5000587;28;20022;-74
2023/03/06 01:21:22;;;;;;;16.90;6.18;;;;;;;1.44;100.00;100664.59;4999150;28;20785;-74
2023/03/06 01:23:47;;;;;;;18.35;6.35;;;;;;;1.38;100.00;100676.28;5001571;28;20500;-74
2023/03/06 01:26:13;;;;;;;16.75;6.00;;;;;;;1.30;100.00;100671.25;5018084;28;20036;-74
2023/03/06 01:28:39;;;;;;;13.57;5.35;;;;;;;1.24;100.00;100674.13;5016433;28;20021;-74
2023/03/06 01:31:06;;;;;;;17.85;5.63;;;;;;;1.21;100.00;100658.38;5017518;28;20037;-74
2023/03/06 01:33:32;;;;;;;17.88;5.90;;;;;;;1.17;100.00;100659.38;5018810;28;20512;-74
2023/03/06 01:35:57;;;;;;;17.80;6.07;;;;;;;1.14;100.00;100662.16;5016835;28;20033;-74
2023/03/06 01:38:22;;;;;;;17.52;5.80;;;;;;;1.09;100.00;100661.47;5018551;28;20025;-74
2023/03/06 01:40:48;;;;;;;17.83;6.28;;;;;;;1.03;100.00;100665.22;5017921;28;21272;-74
2023/03/06 01:43:36;;;;;;;17.77;6.55;;;;;;;1.06;100.00;100664.25;5000390;28;20036;-74
2023/03/06 01:46:27;;;;;;;18.27;5.88;;;;;;;1.00;100.00;100660.88;5017169;28;20064;-74
2023/03/06 01:49:01;;;;;;;;;;;;;;;1.08;100.00;100654.44;5018416;28;20021;-74
2023/03/06 01:51:35;;;;;;;19.23;5.78;;;;;;;0.93;100.00;100645.31;5019146;28;20396;-74
2023/03/06 01:54:07;;;;;;;18.40;6.30;;;;;;;0.90;100.00;100653.34;5018112;28;20184;-74
2023/03/06 01:56:32;;;;;;;18.95;6.47;;;;;;;0.85;100.00;100645.59;5018571;28;20414;-74
2023/03/06 01:58:58;;;;;;;18.42;6.85;;;;;;;0.81;100.00;100649.25;5001591;28;20065;-74
2023/03/06 02:01:24;;;;;;;20.52;6.93;;;;;;;0.79;100.00;100651.06;5016205;28;20033;-74
2023/03/06 02:03:50;;;;;;;17.33;5.80;;;;;;;0.78;100.00;100649.38;5000611;28;20029;-74
2023/03/06 02:06:18;;;;;;;17.27;6.25;;;;;;;0.76;100.00;100643.25;5019612;28;20037;-74
2023/03/06 02:08:46;;;;;;;17.90;5.90;;;;;;;0.74;100.00;100643.31;5001938;28;20029;-74
2023/03/06 02:11:15;;;;;;;19.88;7.22;;;;;;;0.74;100.00;100642.44;5001756;28;20045;-74
2023/03/06 02:13:41;;;;;;;20.15;7.53;;;;;;;0.74;100.00;100639.81;5000936;28;20404;-74
2023/03/06 02:16:09;;;;;;;18.25;5.95;;;;;;;0.71;100.00;100637.28;5019048;28;20067;-74
2023/03/06 02:18:35;;;;;;;19.20;6.65;;;;;;;0.73;100.00;100635.44;5017818;28;20626;-74
2023/03/06 02:21:19;;;;;;;19.67;6.75;;;;;;;0.71;100.00;100637.28;5000702;28;20140;-74
2023/03/06 02:24:29;;;;;;;20.40;6.50;;;;;;;0.69;100.00;100630.25;5001620;28;20492;-74
2023/03/06 02:26:56;;;;;;;19.85;6.25;;;;;;;0.69;100.00;100611.75;5003957;28;21200;-74
2023/03/06 02:29:25;;;;;;;18.83;5.65;;;;;;;0.77;100.00;100618.53;5000841;28;20021;-74
2023/03/06 02:31:50;;;;;;;21.48;7.47;;;;;;;0.83;100.00;100605.06;5018956;28;20469;-74
2023/03/06 02:34:15;;;;;;;21.17;6.07;;;;;;;0.86;100.00;100612.91;5019791;28;20040;-74
2023/03/06 02:36:46;;;;;;;18.75;6.38;;;;;;;0.83;100.00;100610.38;5000701;28;20030;-74
2023/03/06 02:39:13;;;;;;;17.13;5.57;;;;;;;0.82;100.00;100603.34;5021713;28;20037;-74
2023/03/06 02:41:39;;;;;;;18.80;6.68;;;;;;;0.84;100.00;100596.22;5020252;28;20479;-74
2023/03/06 02:44:04;;;;;;;18.17;6.20;;;;;;;0.87;100.00;100593.47;5022362;28;20170;-74
2023/03/06 02:46:29;;;;;;;18.15;6.57;;;;;;;0.87;100.00;100590.81;5004163;28;20037;-74
2023/03/06 02:48:55;;;;;;;20.25;6.43;;;;;;;0.90;100.00;100584.56;5022154;28;20167;-74
2023/03/06 02:51:20;;;;;;;21.60;6.70;;;;;;;0.89;100.00;100583.69;5021205;28;20536;-74
2023/03/06 02:53:46;;;;;;;19.80;7.10;;;;;;;0.90;100.00;100590.69;5003562;28;20456;-74
2023/03/06 02:56:11;;;;;;;18.55;6.57;;;;;;;0.84;100.00;100585.66;5005320;28;20693;-74
2023/03/06 02:58:37;;;;;;;19.52;6.63;;;;;;;0.84;100.00;100583.00;5022559;28;20040;-74
2023/03/06 03:01:03;;;;;;;18.27;6.22;;;;;;;0.83;100.00;100583.91;5003084;28;20049;-74
2023/03/06 03:03:28;;;;;;;20.15;7.40;;;;;;;0.76;100.00;100580.66;5021806;28;20492;-74
2023/03/06 03:05:54;;;;;;;19.88;6.72;;;;;;;0.77;100.00;100577.06;5022798;28;20162;-74
2023/03/06 03:08:20;;;;;;;19.88;6.53;;;;;;;0.77;100.00;100578.84;5004572;28;20064;-74
2023/03/06 03:10:45;;;;;;;19.58;6.03;;;;;;;0.75;100.00;100575.38;5003983;28;20033;-74
2023/03/06 03:13:11;;;;;;;21.42;7.88;;;;;;;0.71;100.00;100574.66;5022842;28;20042;-74
2023/03/06 03:15:36;;;;;;;20.23;6.80;;;;;;;0.67;100.00;100568.63;5023191;28;20041;-74
2023/03/06 03:18:01;;;;;;;19.08;7.20;;;;;;;0.64;100.00;100562.56;5022873;28;20041;-74
2023/03/06 03:20:27;;;;;;;20.65;6.53;;;;;;;0.59;100.00;100570.69;5019599;28;20396;-74
2023/03/06 03:22:54;;;;;;;19.42;6.00;;;;;;;0.53;100.00;100573.53;5021510;28;20103;-74
2023/03/06 03:25:21;;;;;;;20.10;6.75;;;;;;;0.54;100.00;100567.31;5020195;28;20032;-74
2023/03/06 03:27:46;;;;;;;21.83;7.13;;;;;;;0.50;100.00;100565.72;5022266;28;20108;-74
2023/03/06 03:30:12;;;;;;;21.88;8.15;;;;;;;0.51;100.00;100567.44;5001742;28;20037;-74
2023/03/06 03:32:38;;;;;;;19.60;7.07;;;;;;;0.44;100.00;100558.00;5004207;28;20033;-74
2023/03/06 03:35:04;;;;;;;19.90;7.53;;;;;;;0.41;100.00;100555.47;5020665;28;20079;-74
2023/03/06 03:37:29;;;;;;;19.95;6.75;;;;;;;0.36;99.88;100553.00;5020549;28;20662;-74
2023/03/06 03:39:55;;;;;;;19.77;6.72;;;;;;;0.31;100.00;100553.16;5003041;28;20037;-74
2023/03/06 03:42:21;;;;;;;24.38;8.70;;;;;;;0.31;100.00;100547.88;5020026;28;20061;-74
2023/03/06 03:44:46;;;;;;;22.85;7.15;;;;;;;0.27;100.00;100548.91;5008230;28;20025;-74
2023/03/06 03:47:12;;;;;;;22.98;7.63;;;;;;;0.28;100.00;100552.38;5002225;28;20052;-74
2023/03/06 03:49:38;;;;;;;20.30;7.53;;;;;;;0.27;100.00;100538.31;5019861;28;20504;-74
2023/03/06 03:52:03;;;;;;;21.10;7.30;;;;;;;0.26;100.00;100536.59;5003072;28;20362;-74
2023/03/06 03:54:29;;;;;;;20.02;7.47;;;;;;;0.23;100.00;100534.06;5021665;28;20068;-74
2023/03/06 03:56:54;;;;;;;26.77;9.50;;;;;;;0.29;100.00;100528.56;5002228;28;20029;-74
2023/03/06 03:59:19;;;;;;;22.95;9.68;;;;;;;0.37;100.00;100528.28;5021521;28;20043;-74
2023/03/06 04:01:45;;;;;;;24.88;10.43;;;;;;;0.46;100.00;100524.44;5000931;28;20116;-74
2023/03/06 04:04:11;;;;;;;23.95;10.63;;;;;;;0.52;100.00;100516.28;5019880;28;20038;-74
2023/03/06 04:06:37;;;;;;;22.65;9.63;;;;;;;0.58;100.00;100513.41;5003760;28;20131;-74
2023/03/06 04:09:03;;;;;;;27.33;10.63;;;;;;;0.63;100.00;100514.09;5021631;28;20104;-74
2023/03/06 04:11:28;;;;;;;25.65;10.70;;;;;;;0.62;100.00;100509.72;5003195;28;20092;-74
2023/03/06 04:13:54;;;;;;;26.95;10.15;;;;;;;0.67;100.00;100506.91;5019888;28;20133;-74
2023/03/06 04:16:19;;;;;;;28.58;12.40;;;;;;;0.66;100.00;100507.84;5004113;28;20171;-74
2023/03/06 04:18:44;;;;;;;26.80;11.55;;;;;;;0.63;100.00;100514.09;5003350;28;20124;-74
2023/03/06 04:21:10;;;;;;;26.10;11.15;;;;;;;0.62;100.00;100515.03;5021075;28;20021;-74
2023/03/06 04:23:35;;;;;;;26.58;11.80;;;;;;;0.58;100.00;100515.19;5021383;28;20033;-74
2023/03/06 04:26:01;;;;;;;26.33;11.57;;;;;;;0.58;100.00;100502.81;5003847;28;20033;-74
2023/03/06 04:28:26;;;;;;;28.77;12.02;;;;;;;0.63;100.00;100508.81;5020823;28;20041;-74
2023/03/06 04:30:51;;;;;;;27.08;12.30;;;;;;;0.66;100.00;100500.78;5003159;28;20521;-74
2023/03/06 04:33:17;;;;;;;26.52;12.98;;;;;;;0.66;100.00;100505.22;5020603;28;20060;-74
2023/03/06 04:35:42;;;;;;;30.83;13.80;;;;;;;0.67;100.00;100496.34;5018177;28;20048;-74
2023/03/06 04:38:08;;;;;;;27.77;13.48;;;;;;;0.68;100.00;100501.56;5020104;28;20528;-74
2023/03/06 04:40:35;;;;;;;31.10;13.30;;;;;;;0.70;100.00;100501.50;4999862;28;20029;-74
2023/03/06 04:43:01;;;;;;;29.98;13.93;;;;;;;0.76;100.00;100497.75;5019565;28;20076;-74
2023/03/06 04:45:28;;;;;;;30.10;14.30;;;;;;;0.79;100.00;100490.59;5001506;28;20029;-74
2023/03/06 04:47:54;;;;;;;31.08;15.57;;;;;;;0.81;100.00;100494.03;5001575;28;20052;-74
2023/03/06 04:50:20;;;;;;;28.42;13.45;;;;;;;0.86;100.00;100485.91;5018938;28;20029;-74
2023/03/06 04:52:46;;;;;;;31.83;14.77;;;;;;;0.89;100.00;100493.72;5019453;28;20057;-74
2023/03/06 04:55:14;;;;;;;32.20;15.50;;;;;;;0.91;100.00;100491.91;5001090;28;20053;-74
2023/03/06 04:57:41;;;;;;;30.08;13.95;;;;;;;0.91;100.00;100483.97;5020425;28;20037;-74
2023/03/06 05:00:12;;;;;;;32.42;15.75;;;;;;;0.92;100.00;100480.38;5002673;28;20384;-74
2023/03/06 05:02:41;;;;;;;33.90;15.73;;;;;;;0.95;100.00;100485.56;5000493;28;20040;-74
2023/03/06 05:05:06;;;;;;;30.80;16.15;;;;;;;0.96;100.00;100489.91;5001393;28;20036;-74
2023/03/06 05:07:32;;;;;;;30.65;14.90;;;;;;;0.99;100.00;100486.28;5020834;28;20056;-74
2023/03/06 05:09:57;;;;;;;30.23;15.68;;;;;;;1.02;100.00;100484.38;5019704;28;20035;-74
2023/03/06 05:12:22;;;;;;;34.95;16.45;;;;;;;1.01;100.00;100485.31;5002726;28;20527;-74
2023/03/06 05:14:48;;;;;;;29.75;15.35;;;;;;;1.04;100.00;100482.53;5020635;28;20108;-74
2023/03/06 05:17:13;;;;;;;31.73;14.38;;;;;;;1.06;100.00;100473.69;5002325;28;20504;-74
2023/03/06 05:19:38;;;;;;;32.67;16.05;;;;;;;1.08;100.00;100471.84;5000484;28;20076;-74
2023/03/06 05:22:04;;;;;;;32.25;14.40;;;;;;;1.09;100.00;100470.91;5019098;28;20112;-74
2023/03/06 05:24:29;;;;;;;32.33;16.48;;;;;;;1.10;100.00;100469.97;5018496;28;20064;-74
2023/03/06 05:26:54;;;;;;;32.08;15.70;;;;;;;1.11;100.00;100472.56;5001022;28;20037;-74
2023/03/06 05:29:20;;;;;;;32.33;17.13;;;;;;;1.14;100.00;100471.59;5000687;28;20084;-74
2023/03/06 05:31:46;;;;;;;31.98;16.67;;;;;;;1.14;100.00;100471.59;5018194;28;20048;-74
2023/03/06 05:34:13;;;;;;;30.95;15.60;;;;;;;1.14;100.00;100464.53;4999564;28;20044;-74
2023/03/06 05:36:38;;;;;;;32.42;15.98;;;;;;;1.17;100.00;100459.09;4999772;28;20067;-74
2023/03/06 05:39:03;;;;;;;30.60;16.77;;;;;;;1.22;100.00;100461.56;5017363;28;20564;-74
2023/03/06 05:41:28;;;;;;;30.92;15.77;;;;;;;1.25;100.00;100458.78;4996748;28;20103;-74
2023/03/06 05:43:55;;;;;;;32.15;17.05;;;;;;;1.29;100.00;100465.69;5017979;28;20091;-74
2023/03/06 05:46:21;;;;;;;32.80;17.20;;;;;;;1.33;100.00;100464.63;5018730;28;20167;-74
2023/03/06 05:48:46;;;;;;;31.95;16.50;;;;;;;1.36;100.00;100461.84;5001537;28;20439;-74
2023/03/06 05:51:12;;;;;;;31.38;17.15;;;;;;;1.36;100.00;100467.16;5019063;28;20033;-74
2023/03/06 05:53:37;;;;;;;33.20;17.10;;;;;;;1.35;100.00;100454.84;5001270;28;20481;-74
2023/03/06 05:56:05;;;;;;;32.28;17.13;;;;;;;1.38;100.00;100457.34;5018782;28;20037;-74
2023/03/06 05:58:32;;;;;;;37.70;17.38;;;;;;;1.39;100.00;100450.25;5016884;28;20045;-74
2023/03/06 06:00:58;;;;;;;35.97;17.08;;;;;;;1.39;100.00;100448.50;5015094;28;20520;-74
2023/03/06 06:03:24;;;;;;;32.30;17.58;;;;;;;1.40;100.00;100455.47;4996217;28;20033;-74
2023/03/06 06:05:49;;;;;;;33.72;16.65;;;;;;;1.43;100.00;100457.16;5017851;28;20036;-74
2023/03/06 06:08:15;;;;;;;39.28;17.67;;;;;;;1.44;100.00;100458.03;5016399;28;20063;-74
2023/03/06 06:10:40;;;;;;;35.78;18.10;;;;;;;1.47;100.00;100458.75;5000385;28;20484;-74
2023/03/06 06:13:06;;;;;;;32.53;17.48;;;;;;;1.45;100.00;100454.44;5021769;28;20060;-74
2023/03/06 06:15:31;;;;;;;30.95;17.00;;;;;;;1.46;100.00;100450.88;5020072;28;20038;-74
2023/03/06 06:17:56;;;;;;;37.00;19.38;;;;;;;1.47;100.00;100457.91;5004284;28;20079;-74
2023/03/06 06:20:22;;;;;;;32.58;16.58;;;;;;;1.47;100.00;100461.41;5002835;28;20579;-74
2023/03/06 06:22:48;;;;;;;43.35;17.40;;;;;;;1.48;100.00;100454.31;5019504;28;20913;-74
2023/03/06 06:25:14;;;;;;;33.53;17.77;;;;;;;1.52;100.00;100458.56;5020202;28;20057;-74
2023/03/06 06:27:39;;;;;;;32.22;17.17;;;;;;;1.54;100.00;100454.06;5022105;28;20041;-74
2023/03/06 06:30:06;;;;;;;36.83;18.83;;;;;;;1.57;100.00;100454.78;5003774;28;20040;-74
2023/03/06 06:32:32;;;;;;;33.88;16.90;;;;;;;1.60;100.00;100445.84;5022157;28;20547;-74
2023/03/06 06:34:57;;;;;;;35.78;17.58;;;;;;;1.60;100.00;100448.50;5018939;28;20033;-74
2023/03/06 06:37:24;;;;;;;34.30;17.80;;;;;;;1.61;100.00;100447.59;5020477;28;20037;-74
2023/03/06 06:39:50;;;;;;;33.88;16.33;;;;;;;1.63;100.00;100451.03;5021750;28;20053;-74
2023/03/06 06:42:15;;;;;;;33.08;18.27;;;;;;;1.65;100.00;100456.25;5023087;28;20036;-73
2023/03/06 06:44:40;;;;;;;32.47;17.75;;;;;;;1.63;100.00;100453.66;5005692;28;20393;-74
2023/03/06 06:47:09;;;;;;;35.17;18.73;;;;;;;1.65;100.00;100445.66;5021999;28;20649;-75
2023/03/06 06:49:35;;;;;;;34.63;17.95;;;;;;;1.64;100.00;100447.47;5020214;28;20037;-75
2023/03/06 06:52:01;;;;;;;35.13;18.17;;;;;;;1.63;100.00;100447.53;5019336;28;20099;-75
2023/03/06 06:54:26;;;;;;;33.90;18.50;;;;;;;1.66;100.00;100444.75;5002536;28;20655;-75
2023/03/06 06:56:52;;;;;;;35.60;19.25;;;;;;;1.69;100.00;100442.81;5022417;28;20341;-75
2023/03/06 06:59:18;;;;;;;35.97;18.92;;;;;;;1.72;100.00;100441.81;5021501;28;20040;-75
2023/03/06 07:01:43;;;;;;;38.72;21.55;;;;;;;1.74;100.00;100454.09;5021241;28;20342;-75
2023/03/06 07:04:11;;;;;;;38.80;19.02;;;;;;;1.79;100.00;100451.22;5019465;28;20041;-75
2023/03/06 07:06:36;;;;;;;33.53;19.25;;;;;;;1.83;100.00;100454.59;5022128;28;20029;-75
2023/03/06 07:09:04;;;;;;;33.35;19.10;;;;;;;1.87;100.00;100456.19;5001713;28;20140;-75
2023/03/06 07:11:29;;;;;;;34.65;20.35;;;;;;;1.87;100.00;100456.19;5021358;28;20481;-75
2023/03/06 07:13:54;;;;;;;35.50;21.63;;;;;;;1.87;100.00;100459.69;5019687;28;20037;-76
2023/03/06 07:16:20;;;;;;;38.90;21.45;;;;;;;1.92;100.00;100462.16;5019858;28;20047;-77
2023/03/06 07:18:45;;;;;;;37.60;22.63;;;;;;;1.95;100.00;100461.16;4998271;28;20132;-79
2023/03/06 07:21:10;;;;;;;37.03;20.73;;;;;;;1.98;100.00;100463.69;5000470;28;20503;-80
2023/03/06 07:23:36;;;;;;;36.33;20.35;;;;;;;2.00;100.00;100462.66;5018048;28;20083;-78
2023/03/06 07:26:03;;;;;;;39.03;20.80;;;;;;;2.02;100.00;100470.56;5018528;28;20080;-77
2023/03/06 07:28:28;;;;;;;37.90;21.75;;;;;;;2.04;100.00;100464.25;5000554;28;20581;-76
2023/03/06 07:30:53;;;;;;;40.85;22.52;;;;;;;2.04;100.00;100461.63;5020565;28;20041;-78
2023/03/06 07:33:19;;;;;;;43.33;23.00;;;;;;;2.05;100.00;100462.47;5003539;28;20083;-76
2023/03/06 07:35:44;;;;;;;39.95;20.20;;;;;;;2.05;100.00;100460.69;5020584;28;20045;-77
2023/03/06 07:38:10;;;;;;;38.65;21.77;;;;;;;2.09;100.00;100456.09;5021432;28;20041;-78
2023/03/06 07:40:37;;;;;;;42.53;23.33;;;;;;;2.12;100.00;100460.41;4997474;28;20037;-76
2023/03/06 07:43:03;;;;;;;40.40;22.15;;;;;;;2.14;100.00;100458.53;4997980;28;20041;-77
2023/03/06 07:45:29;;;;;;;38.45;23.42;;;;;;;2.19;100.00;100453.91;5018031;28;20052;-76
2023/03/06 07:47:54;;;;;;;40.20;21.63;;;;;;;2.23;100.00;100451.03;4997089;28;20399;-76
2023/03/06 07:50:19;;;;;;;38.67;23.77;;;;;;;2.28;100.00;100453.47;5028711;28;20128;-77
2023/03/06 07:52:46;;;;;;;38.47;22.85;;;;;;;2.33;100.00;100454.16;5013961;28;20046;-77
2023/03/06 07:55:12;;;;;;;38.92;21.83;;;;;;;2.38;100.00;100459.25;5030955;28;20033;-77
2023/03/06 07:57:37;;;;;;;40.83;22.88;;;;;;;2.38;100.00;100462.75;5031698;28;20092;-77
2023/03/06 08:00:04;;;;;;;40.50;21.83;;;;;;;2.38;100.00;100460.09;5031120;28;20092;-75
2023/03/06 08:02:30;;;;;;;38.47;22.27;;;;;;;2.38;100.00;100460.09;5030216;28;20060;-78
2023/03/06 08:04:55;;;;;;;40.35;23.05;;;;;;;2.41;100.00;100461.75;5027437;28;20057;-77
2023/03/06 08:07:21;;;;;;;43.88;23.40;;;;;;;2.43;100.00;100463.41;5013946;28;20029;-77
2023/03/06 08:09:47;;;;;;;36.33;22.10;;;;;;;2.46;100.00;100462.41;5014831;28;20030;-77
2023/03/06 08:12:12;;;;;;;43.88;22.15;;;;;;;2.50;100.00;100466.63;5030305;28;20061;-76
2023/03/06 08:14:38;;;;;;;39.05;22.77;;;;;;;2.54;100.00;100465.56;5014861;28;20108;-79
2023/03/06 08:17:03;;;;;;;39.90;21.73;;;;;;;2.55;100.00;100467.28;5032990;28;20037;-76
2023/03/06 08:19:28;;;;;;;40.10;22.08;;;;;;;2.58;100.00;100464.50;5032398;28;20397;-77
2023/03/06 08:21:54;;;;;;;41.28;25.10;;;;;;;2.60;100.00;100469.72;5014720;28;20056;-76
2023/03/06 08:24:19;;;;;;;41.92;23.80;;;;;;;2.62;100.00;100465.19;5032496;28;20029;-75
2023/03/06 08:26:45;;;;;;;43.60;21.20;;;;;;;2.64;100.00;100467.81;5032312;28;20033;-77
2023/03/06 08:29:10;;;;;;;37.45;21.13;;;;;;;2.65;100.00;100467.72;5014157;28;20511;-76
2023/03/06 08:31:39;;;;;;;42.03;23.42;;;;;;;2.67;100.00;100465.00;5032735;28;20148;-77
2023/03/06 08:34:06;;;;;;;38.97;20.90;;;;;;;2.70;100.00;100467.50;5013925;28;20029;-76
2023/03/06 08:36:32;;;;;;;39.65;23.27;;;;;;;2.72;100.00;100462.97;5012335;28;20025;-79
2023/03/06 08:38:58;;;;;;;39.13;23.25;;;;;;;2.77;100.00;100469.81;5014679;28;20029;-77
2023/03/06 08:41:23;;;;;;;34.90;21.10;;;;;;;2.83;100.00;100463.34;5022879;28;20112;-77
2023/03/06 08:43:49;;;;;;;33.47;20.02;;;;;;;2.89;100.00;100463.03;5033669;28;20107;-75
2023/03/06 08:46:14;;;;;;;35.97;20.55;;;;;;;2.97;100.00;100462.66;5009705;28;20121;-75
2023/03/06 08:48:40;;;;;;;33.38;17.77;;;;;;;3.02;100.00;100467.78;5015380;28;20026;-74
2023/03/06 08:51:08;;;;;;;35.50;19.25;;;;;;;3.05;100.00;100468.50;5011973;28;20025;-75
2023/03/06 08:53:33;;;;;;;32.88;17.13;;;;;;;3.10;100.00;100473.56;5010809;28;20042;-75
2023/03/06 08:55:59;;;;;;;36.80;20.17;;;;;;;3.14;100.00;100470.69;5026233;28;20160;-75
2023/03/06 08:58:24;;;;;;;32.47;17.10;;;;;;;3.18;100.00;100467.88;5014523;28;20037;-75
2023/03/06 09:00:50;;;;;;;34.25;18.60;;;;;;;3.21;100.00;100470.41;5021568;28;20033;-75
2023/03/06 09:03:16;;;;;;;35.22;18.35;;;;;;;3.23;100.00;100474.69;5032217;28;20427;-75
2023/03/06 09:05:42;;;;;;;34.28;17.88;;;;;;;3.28;100.00;100471.81;5014417;28;20033;-75
2023/03/06 09:08:07;;;;;;;33.40;19.48;;;;;;;3.33;100.00;100475.97;5029792;28;20548;-75
2023/03/06 09:10:32;;;;;;;32.60;18.23;;;;;;;3.39;100.00;100469.50;5020275;28;20041;-75
2023/03/06 09:12:58;;;;;;;36.30;20.75;;;;;;;3.46;100.00;100470.06;5032182;28;20033;-75
2023/03/06 09:15:23;;;;;;;31.23;16.00;;;;;;;3.48;100.00;100466.41;5016684;28;20112;-75
2023/03/06 09:17:49;;;;;;;34.40;19.02;;;;;;;3.53;100.00;100470.59;5017763;28;20484;-75
2023/03/06 09:20:15;;;;;;;34.22;18.65;;;;;;;3.57;100.00;100472.16;5032297;28;20035;-75
2023/03/06 09:22:41;;;;;;;32.10;17.30;;;;;;;3.61;100.00;100473.75;5031830;28;20120;-75
2023/03/06 09:25:08;;;;;;;35.78;18.88;;;;;;;3.65;100.00;100464.69;5029478;28;20112;-75
2023/03/06 09:27:34;;;;;;;33.30;18.25;;;;;;;3.70;100.00;100467.94;5029555;28;20436;-75
2023/03/06 09:29:59;;;;;;;34.60;18.27;;;;;;;3.76;100.00;100474.75;5030701;28;20116;-75
2023/03/06 09:32:25;;;;;;;36.20;17.58;;;;;;;3.80;100.00;100477.16;5019895;28;20034;-75
2023/03/06 09:34:50;;;;;;;34.45;19.88;;;;;;;3.85;100.00;100477.81;5021537;28;20576;-75
2023/03/06 09:37:16;;;;;;;32.97;18.30;;;;;;;3.88;100.00;100483.91;5009154;28;20036;-75
2023/03/06 09:39:42;;;;;;;34.10;18.58;;;;;;;3.92;100.00;100482.81;5015421;28;20069;-75
2023/03/06 09:42:16;;;;;;;33.25;18.40;;;;;;;3.95;100.00;100470.22;5003078;28;20065;-75
2023/03/06 09:44:43;;;;;;;36.40;19.58;;;;;;;4.01;100.00;100477.00;5026264;28;20048;-75
2023/03/06 09:47:50;;;;;;;34.70;19.05;;;;;;;4.03;100.00;100477.81;5028459;28;20063;-75
2023/03/06 09:50:42;;;;;;;31.30;15.23;;;;;;;4.06;100.00;100476.78;5008316;28;20118;-75
2023/03/06 09:53:26;;;;;;;31.20;17.27;;;;;;;4.08;100.00;100474.91;5013014;28;20045;-76
2023/03/06 09:56:01;;;;;;;33.75;17.15;;;;;;;4.12;100.00;100479.97;5025776;28;20033;-75
2023/03/06 09:58:28;;;;;;;30.40;16.15;;;;;;;4.15;100.00;100473.63;5025533;28;20034;-75
2023/03/06 10:01:05;;;;;;;29.98;16.42;;;;;;;4.20;100.00;100471.56;5025073;28;20117;-75
2023/03/06 10:03:43;;;;;;;30.70;16.55;;;;;;;4.23;100.00;100473.22;5006917;28;20476;-75
2023/03/06 10:06:14;;;;;;;30.30;15.55;;;;;;;4.26;100.00;100473.06;5023339;28;20140;-75
2023/03/06 10:08:45;;;;;;;30.63;15.15;;;;;;;4.32;100.00;100462.97;5028354;28;20058;-75
2023/03/06 10:11:15;;;;;;;29.70;15.40;;;;;;;4.35;99.13;100468.13;5028027;28;20052;-75
2023/03/06 10:13:49;;;;;;;;;;;;;;;4.40;100.00;100464.34;5011174;28;20091;-76
2023/03/06 10:16:26;;;;;;;27.52;13.45;;;;;;;4.40;99.64;100469.69;5010385;28;19951;-75
2023/03/06 10:18:54;;;;;;;28.73;14.75;;;;;;;4.43;100.00;100470.34;5023614;28;20061;-76
2023/03/06 10:21:28;;;;;;;30.55;16.50;;;;;;;4.47;99.66;100466.59;5027671;28;21099;-75
2023/03/06 10:24:12;;;;;;;28.20;15.88;;;;;;;4.51;99.99;100468.16;5009410;28;20068;-76
2023/03/06 10:26:53;;;;;;;26.98;15.52;;;;;;;4.55;99.14;100459.06;5023540;28;20105;-75
2023/03/06 10:29:29;;;;;;;29.45;14.77;;;;;;;4.63;98.76;100463.09;5027035;28;20052;-75
2023/03/06 10:32:09;;;;;;;27.23;14.70;;;;;;;4.63;96.77;100461.28;5011043;28;20037;-75
2023/03/06 10:34:38;;;;;;;27.20;14.40;;;;;;;4.65;96.10;100461.22;5022332;28;20054;-75
2023/03/06 10:37:15;;;;;;;30.15;14.70;;;;;;;4.68;96.66;100458.38;5010786;28;20022;-76
2023/03/06 10:39:40;;;;;;;30.58;14.35;;;;;;;4.72;94.75;100465.25;5027534;28;20595;-76
2023/03/06 10:42:07;;;;;;;29.75;14.80;;;;;;;4.75;96.59;100459.75;5026468;28;20025;-75
2023/03/06 10:44:32;;;;;;;28.33;14.70;;;;;;;4.77;96.67;100463.19;5027393;28;20419;-75
2023/03/06 10:46:58;;;;;;;28.27;13.15;;;;;;;4.79;94.66;100456.00;5026863;28;20030;-76
2023/03/06 10:49:36;;;;;;;26.52;13.45;;;;;;;4.86;94.99;100462.69;5023666;28;20038;-76
2023/03/06 10:52:13;;;;;;;26.10;12.65;;;;;;;4.90;94.82;100458.91;5024342;28;20040;-75
2023/03/06 10:54:42;;;;;;;27.30;13.38;;;;;;;4.98;94.96;100461.16;5010568;28;20061;-76
2023/03/06 10:57:27;;;;;;;26.30;12.75;;;;;;;5.03;94.11;100456.41;5007814;28;20029;-76
2023/03/06 10:59:57;;;;;;;25.67;12.30;;;;;;;5.05;92.77;100462.53;5034389;28;20030;-75
2023/03/06 11:02:28;;;;;;;25.52;11.85;;;;;;;5.08;94.39;100465.00;5011865;28;20028;-76
2023/03/06 11:04:55;;;;;;;28.05;13.82;;;;;;;5.10;94.34;100464.91;5032836;28;20057;-75
2023/03/06 11:07:28;;;;;;;26.27;12.60;;;;;;;5.15;93.94;100460.16;5030576;28;20038;-76
2023/03/06 11:09:56;;;;;;;26.92;13.10;;;;;;;5.19;94.77;100461.72;5030593;28;20116;-75
2023/03/06 11:12:33;;;;;;;27.90;12.43;;;;;;;5.18;93.50;100457.38;5032516;28;20032;-76
2023/03/06 11:15:11;;;;;;;27.17;12.57;;;;;;;5.20;93.80;100457.28;5031263;28;20500;-76